sensor_id;sensor_type;location;lat;lon;timestamp;P1;durP1;ratioP1;P2;durP2;ratioP2
11203;SDS011;5659;49.408;11.116;2023-03-23T00:00:44;7.53;;;4.03;;
11203;SDS011;5659;49.408;11.116;2023-03-23T00:03:09;7.33;;;4.63;;
11203;SDS011;5659;49.408;11.116;2023-03-23T00:05:37;7.83;;;4.60;;
11203;SDS011;5659;49.408;11.116;2023-03-23T00:08:06;5.37;;;4.07;;
11203;SDS011;5659;49.408;11.116;2023-03-23T00:10:34;8.07;;;4.70;;
11203;SDS011;5659;49.408;11.116;2023-03-23T00:13:00;8.07;;;4.90;;
11203;SDS011;5659;49.408;11.116;2023-03-23T00:15:27;6.60;;;4.43;;
11203;SDS011;5659;49.408;11.116;2023-03-23T00:17:58;8.10;;;4.57;;
11203;SDS011;5659;49.408;11.116;2023-03-23T00:20:28;6.63;;;4.10;;
11203;SDS011;5659;49.408;11.116;2023-03-23T00:23:05;6.73;;;4.03;;
11203;SDS011;5659;49.408;11.116;2023-03-23T00:25:31;4.70;;;4.00;;
11203;SDS011;5659;49.408;11.116;2023-03-23T00:27:57;5.37;;;3.60;;
11203;SDS011;5659;49.408;11.116;2023-03-23T00:30:23;4.83;;;3.50;;
11203;SDS011;5659;49.408;11.116;2023-03-23T00:32:49;5.67;;;3.90;;
11203;SDS011;5659;49.408;11.116;2023-03-23T00:35:16;8.00;;;4.10;;
11203;SDS011;5659;49.408;11.116;2023-03-23T00:37:42;5.70;;;3.47;;
11203;SDS011;5659;49.408;11.116;2023-03-23T00:40:09;4.37;;;3.30;;
11203;SDS011;5659;49.408;11.116;2023-03-23T00:42:35;6.97;;;3.90;;
11203;SDS011;5659;49.408;11.116;2023-03-23T00:45:03;5.73;;;4.20;;
11203;SDS011;5659;49.408;11.116;2023-03-23T00:47:35;6.17;;;3.70;;
11203;SDS011;5659;49.408;11.116;2023-03-23T00:50:01;6.47;;;3.70;;
11203;SDS011;5659;49.408;11.116;2023-03-23T00:52:27;6.10;;;3.60;;
11203;SDS011;5659;49.408;11.116;2023-03-23T00:54:53;4.70;;;3.57;;
11203;SDS011;5659;49.408;11.116;2023-03-23T00:57:19;7.10;;;3.50;;
11203;SDS011;5659;49.408;11.116;2023-03-23T00:59:49;4.77;;;2.83;;
11203;SDS011;5659;49.408;11.116;2023-03-23T01:02:15;4.00;;;2.87;;
11203;SDS011;5659;49.408;11.116;2023-03-23T01:04:41;4.43;;;3.10;;
11203;SDS011;5659;49.408;11.116;2023-03-23T01:07:10;3.53;;;2.93;;
11203;SDS011;5659;49.408;11.116;2023-03-23T01:09:43;9.03;;;3.10;;
11203;SDS011;5659;49.408;11.116;2023-03-23T01:12:09;4.73;;;3.10;;
11203;SDS011;5659;49.408;11.116;2023-03-23T01:14:35;5.77;;;2.93;;
11203;SDS011;5659;49.408;11.116;2023-03-23T01:17:02;6.47;;;3.20;;
11203;SDS011;5659;49.408;11.116;2023-03-23T01:19:29;4.77;;;3.00;;
11203;SDS011;5659;49.408;11.116;2023-03-23T01:21:56;6.00;;;3.53;;
11203;SDS011;5659;49.408;11.116;2023-03-23T01:24:30;4.60;;;2.77;;
11203;SDS011;5659;49.408;11.116;2023-03-23T01:26:57;3.87;;;2.70;;
11203;SDS011;5659;49.408;11.116;2023-03-23T01:29:26;5.78;;;2.80;;
11203;SDS011;5659;49.408;11.116;2023-03-23T01:31:52;4.43;;;2.40;;
11203;SDS011;5659;49.408;11.116;2023-03-23T01:34:18;7.53;;;2.60;;
11203;SDS011;5659;49.408;11.116;2023-03-23T01:36:45;5.87;;;2.40;;
11203;SDS011;5659;49.408;11.116;2023-03-23T01:39:12;3.40;;;2.60;;
11203;SDS011;5659;49.408;11.116;2023-03-23T01:41:39;6.43;;;2.67;;
11203;SDS011;5659;49.408;11.116;2023-03-23T01:46:33;3.40;;;2.30;;
11203;SDS011;5659;49.408;11.116;2023-03-23T01:49:03;3.77;;;2.37;;
11203;SDS011;5659;49.408;11.116;2023-03-23T01:51:34;4.05;;;2.30;;
11203;SDS011;5659;49.408;11.116;2023-03-23T01:54:04;4.60;;;2.30;;
11203;SDS011;5659;49.408;11.116;2023-03-23T01:56:36;2.95;;;2.55;;
11203;SDS011;5659;49.408;11.116;2023-03-23T01:59:05;6.90;;;2.58;;
11203;SDS011;5659;49.408;11.116;2023-03-23T02:01:32;5.05;;;2.22;;
11203;SDS011;5659;49.408;11.116;2023-03-23T02:04:03;4.47;;;2.60;;
11203;SDS011;5659;49.408;11.116;2023-03-23T02:06:29;4.78;;;2.65;;
11203;SDS011;5659;49.408;11.116;2023-03-23T02:08:56;5.13;;;2.60;;
11203;SDS011;5659;49.408;11.116;2023-03-23T02:11:24;5.10;;;2.53;;
11203;SDS011;5659;49.408;11.116;2023-03-23T02:13:51;3.22;;;2.30;;
11203;SDS011;5659;49.408;11.116;2023-03-23T02:16:31;3.60;;;2.65;;
11203;SDS011;5659;49.408;11.116;2023-03-23T02:24:40;2.55;;;1.95;;
11203;SDS011;5659;49.408;11.116;2023-03-23T02:27:14;2.40;;;2.00;;
11203;SDS011;5659;49.408;11.116;2023-03-23T02:32:44;7.85;;;2.13;;
11203;SDS011;5659;49.408;11.116;2023-03-23T02:35:34;2.30;;;2.10;;
11203;SDS011;5659;49.408;11.116;2023-03-23T02:38:25;3.90;;;2.20;;
11203;SDS011;5659;49.408;11.116;2023-03-23T02:41:00;2.40;;;2.08;;
11203;SDS011;5659;49.408;11.116;2023-03-23T02:43:28;4.47;;;2.13;;
11203;SDS011;5659;49.408;11.116;2023-03-23T02:46:02;3.15;;;2.08;;
11203;SDS011;5659;49.408;11.116;2023-03-23T02:48:31;4.35;;;2.33;;
11203;SDS011;5659;49.408;11.116;2023-03-23T02:50:58;4.35;;;2.35;;
11203;SDS011;5659;49.408;11.116;2023-03-23T02:53:26;4.68;;;2.10;;
11203;SDS011;5659;49.408;11.116;2023-03-23T02:55:54;3.97;;;2.30;;
11203;SDS011;5659;49.408;11.116;2023-03-23T02:58:22;2.20;;;2.00;;
11203;SDS011;5659;49.408;11.116;2023-03-23T03:00:48;2.92;;;2.17;;
11203;SDS011;5659;49.408;11.116;2023-03-23T03:03:16;8.13;;;2.47;;
11203;SDS011;5659;49.408;11.116;2023-03-23T03:08:18;6.68;;;2.15;;
11203;SDS011;5659;49.408;11.116;2023-03-23T03:10:51;3.45;;;2.30;;
11203;SDS011;5659;49.408;11.116;2023-03-23T03:15:53;5.05;;;2.28;;
11203;SDS011;5659;49.408;11.116;2023-03-23T03:18:22;5.65;;;2.60;;
11203;SDS011;5659;49.408;11.116;2023-03-23T03:20:52;2.80;;;2.17;;
11203;SDS011;5659;49.408;11.116;2023-03-23T03:23:20;7.35;;;2.33;;
11203;SDS011;5659;49.408;11.116;2023-03-23T03:25:48;4.55;;;2.00;;
11203;SDS011;5659;49.408;11.116;2023-03-23T03:28:16;8.55;;;2.25;;
11203;SDS011;5659;49.408;11.116;2023-03-23T03:30:47;2.95;;;2.10;;
11203;SDS011;5659;49.408;11.116;2023-03-23T03:33:16;3.45;;;2.40;;
11203;SDS011;5659;49.408;11.116;2023-03-23T03:35:45;4.28;;;2.17;;
11203;SDS011;5659;49.408;11.116;2023-03-23T03:38:12;4.60;;;2.45;;
11203;SDS011;5659;49.408;11.116;2023-03-23T03:40:40;6.40;;;2.17;;
11203;SDS011;5659;49.408;11.116;2023-03-23T03:43:07;4.28;;;2.40;;
11203;SDS011;5659;49.408;11.116;2023-03-23T03:45:33;3.08;;;2.20;;
11203;SDS011;5659;49.408;11.116;2023-03-23T03:47:59;3.70;;;2.00;;
11203;SDS011;5659;49.408;11.116;2023-03-23T03:50:26;5.68;;;2.05;;
11203;SDS011;5659;49.408;11.116;2023-03-23T03:52:53;2.95;;;1.80;;
11203;SDS011;5659;49.408;11.116;2023-03-23T03:55:19;2.75;;;1.88;;
11203;SDS011;5659;49.408;11.116;2023-03-23T03:57:46;2.65;;;2.03;;
11203;SDS011;5659;49.408;11.116;2023-03-23T04:00:13;1.95;;;1.60;;
11203;SDS011;5659;49.408;11.116;2023-03-23T04:02:41;2.70;;;2.08;;
11203;SDS011;5659;49.408;11.116;2023-03-23T04:05:08;3.63;;;2.03;;
11203;SDS011;5659;49.408;11.116;2023-03-23T04:07:36;2.55;;;1.77;;
11203;SDS011;5659;49.408;11.116;2023-03-23T04:10:03;2.50;;;1.88;;
11203;SDS011;5659;49.408;11.116;2023-03-23T04:12:33;6.83;;;1.90;;
11203;SDS011;5659;49.408;11.116;2023-03-23T04:15:00;3.10;;;1.98;;
11203;SDS011;5659;49.408;11.116;2023-03-23T04:17:27;6.65;;;2.20;;
11203;SDS011;5659;49.408;11.116;2023-03-23T04:19:54;2.55;;;1.70;;
11203;SDS011;5659;49.408;11.116;2023-03-23T04:22:22;3.33;;;2.13;;
11203;SDS011;5659;49.408;11.116;2023-03-23T04:24:57;3.35;;;2.00;;
11203;SDS011;5659;49.408;11.116;2023-03-23T04:27:26;6.15;;;1.90;;
11203;SDS011;5659;49.408;11.116;2023-03-23T04:29:56;2.30;;;2.00;;
11203;SDS011;5659;49.408;11.116;2023-03-23T04:32:24;2.15;;;1.95;;
11203;SDS011;5659;49.408;11.116;2023-03-23T04:34:53;3.75;;;2.42;;
11203;SDS011;5659;49.408;11.116;2023-03-23T04:37:21;4.13;;;2.17;;
11203;SDS011;5659;49.408;11.116;2023-03-23T04:39:50;2.85;;;1.80;;
11203;SDS011;5659;49.408;11.116;2023-03-23T04:42:25;2.53;;;1.80;;
11203;SDS011;5659;49.408;11.116;2023-03-23T04:44:52;3.15;;;1.90;;
11203;SDS011;5659;49.408;11.116;2023-03-23T04:47:19;3.58;;;1.90;;
11203;SDS011;5659;49.408;11.116;2023-03-23T04:49:46;4.35;;;2.00;;
11203;SDS011;5659;49.408;11.116;2023-03-23T04:52:13;5.13;;;2.22;;
11203;SDS011;5659;49.408;11.116;2023-03-23T04:54:40;3.95;;;2.28;;
11203;SDS011;5659;49.408;11.116;2023-03-23T04:57:07;3.03;;;1.92;;
11203;SDS011;5659;49.408;11.116;2023-03-23T04:59:34;6.28;;;2.05;;
11203;SDS011;5659;49.408;11.116;2023-03-23T05:02:01;2.13;;;1.70;;
11203;SDS011;5659;49.408;11.116;2023-03-23T05:04:28;3.20;;;2.10;;
11203;SDS011;5659;49.408;11.116;2023-03-23T05:06:55;2.58;;;2.10;;
11203;SDS011;5659;49.408;11.116;2023-03-23T05:09:22;2.20;;;1.88;;
11203;SDS011;5659;49.408;11.116;2023-03-23T05:11:48;4.93;;;2.00;;
11203;SDS011;5659;49.408;11.116;2023-03-23T05:14:16;4.82;;;2.30;;
11203;SDS011;5659;49.408;11.116;2023-03-23T05:16:42;4.38;;;2.50;;
11203;SDS011;5659;49.408;11.116;2023-03-23T05:19:13;4.82;;;2.10;;
11203;SDS011;5659;49.408;11.116;2023-03-23T05:21:40;4.95;;;1.98;;
11203;SDS011;5659;49.408;11.116;2023-03-23T05:24:09;5.32;;;2.10;;
11203;SDS011;5659;49.408;11.116;2023-03-23T05:26:36;3.75;;;2.50;;
11203;SDS011;5659;49.408;11.116;2023-03-23T05:29:02;3.85;;;2.20;;
11203;SDS011;5659;49.408;11.116;2023-03-23T05:31:29;5.80;;;2.10;;
11203;SDS011;5659;49.408;11.116;2023-03-23T05:33:57;5.32;;;2.22;;
11203;SDS011;5659;49.408;11.116;2023-03-23T05:36:24;4.65;;;2.47;;
11203;SDS011;5659;49.408;11.116;2023-03-23T05:38:51;6.25;;;2.50;;
11203;SDS011;5659;49.408;11.116;2023-03-23T05:41:18;4.07;;;2.67;;
11203;SDS011;5659;49.408;11.116;2023-03-23T05:43:45;2.63;;;2.20;;
11203;SDS011;5659;49.408;11.116;2023-03-23T05:46:12;6.32;;;2.42;;
11203;SDS011;5659;49.408;11.116;2023-03-23T05:48:39;4.25;;;2.30;;
11203;SDS011;5659;49.408;11.116;2023-03-23T05:51:06;3.97;;;2.67;;
11203;SDS011;5659;49.408;11.116;2023-03-23T05:53:34;2.88;;;2.22;;
11203;SDS011;5659;49.408;11.116;2023-03-23T05:56:02;3.70;;;2.60;;
11203;SDS011;5659;49.408;11.116;2023-03-23T05:58:29;3.25;;;2.53;;
11203;SDS011;5659;49.408;11.116;2023-03-23T06:00:57;3.03;;;2.38;;
11203;SDS011;5659;49.408;11.116;2023-03-23T06:03:24;7.05;;;2.45;;
11203;SDS011;5659;49.408;11.116;2023-03-23T06:05:51;3.90;;;2.42;;
11203;SDS011;5659;49.408;11.116;2023-03-23T06:08:18;4.65;;;2.47;;
11203;SDS011;5659;49.408;11.116;2023-03-23T06:10:45;3.53;;;2.45;;
11203;SDS011;5659;49.408;11.116;2023-03-23T06:13:13;6.35;;;2.85;;
11203;SDS011;5659;49.408;11.116;2023-03-23T06:15:40;5.50;;;2.55;;
11203;SDS011;5659;49.408;11.116;2023-03-23T06:18:07;3.60;;;2.60;;
11203;SDS011;5659;49.408;11.116;2023-03-23T06:20:35;3.38;;;2.70;;
11203;SDS011;5659;49.408;11.116;2023-03-23T06:23:02;7.53;;;2.30;;
11203;SDS011;5659;49.408;11.116;2023-03-23T06:25:30;3.70;;;2.28;;
11203;SDS011;5659;49.408;11.116;2023-03-23T06:27:58;5.50;;;2.53;;
11203;SDS011;5659;49.408;11.116;2023-03-23T06:30:25;4.32;;;2.97;;
11203;SDS011;5659;49.408;11.116;2023-03-23T06:32:55;5.13;;;2.63;;
11203;SDS011;5659;49.408;11.116;2023-03-23T06:35:22;3.08;;;2.70;;
11203;SDS011;5659;49.408;11.116;2023-03-23T06:37:50;4.35;;;2.72;;
11203;SDS011;5659;49.408;11.116;2023-03-23T06:40:19;4.28;;;2.90;;
11203;SDS011;5659;49.408;11.116;2023-03-23T06:42:46;3.85;;;2.78;;
11203;SDS011;5659;49.408;11.116;2023-03-23T06:45:16;6.40;;;3.55;;
11203;SDS011;5659;49.408;11.116;2023-03-23T06:47:44;4.30;;;3.30;;
11203;SDS011;5659;49.408;11.116;2023-03-23T06:50:15;4.90;;;3.05;;
11203;SDS011;5659;49.408;11.116;2023-03-23T06:52:46;5.07;;;3.35;;
11203;SDS011;5659;49.408;11.116;2023-03-23T06:55:13;5.55;;;2.85;;
11203;SDS011;5659;49.408;11.116;2023-03-23T06:57:42;3.85;;;2.85;;
11203;SDS011;5659;49.408;11.116;2023-03-23T07:00:19;8.18;;;2.97;;
11203;SDS011;5659;49.408;11.116;2023-03-23T07:02:50;5.40;;;3.10;;
11203;SDS011;5659;49.408;11.116;2023-03-23T07:05:59;4.13;;;3.10;;
11203;SDS011;5659;49.408;11.116;2023-03-23T07:09:10;4.00;;;3.42;;
11203;SDS011;5659;49.408;11.116;2023-03-23T07:11:38;5.07;;;2.80;;
11203;SDS011;5659;49.408;11.116;2023-03-23T07:14:04;7.80;;;3.22;;
11203;SDS011;5659;49.408;11.116;2023-03-23T07:16:31;7.47;;;3.20;;
11203;SDS011;5659;49.408;11.116;2023-03-23T07:18:57;7.10;;;3.33;;
11203;SDS011;5659;49.408;11.116;2023-03-23T07:21:23;3.63;;;2.83;;
11203;SDS011;5659;49.408;11.116;2023-03-23T07:23:49;4.63;;;3.53;;
11203;SDS011;5659;49.408;11.116;2023-03-23T07:26:15;8.10;;;3.60;;
11203;SDS011;5659;49.408;11.116;2023-03-23T07:28:41;6.20;;;3.60;;
11203;SDS011;5659;49.408;11.116;2023-03-23T07:31:07;6.85;;;3.28;;
11203;SDS011;5659;49.408;11.116;2023-03-23T07:33:34;6.97;;;3.28;;
11203;SDS011;5659;49.408;11.116;2023-03-23T07:36:00;8.27;;;3.13;;
11203;SDS011;5659;49.408;11.116;2023-03-23T07:38:27;6.43;;;3.25;;
11203;SDS011;5659;49.408;11.116;2023-03-23T07:40:53;7.13;;;3.05;;
11203;SDS011;5659;49.408;11.116;2023-03-23T07:43:19;6.22;;;3.38;;
11203;SDS011;5659;49.408;11.116;2023-03-23T07:45:45;6.50;;;3.25;;
11203;SDS011;5659;49.408;11.116;2023-03-23T07:48:11;7.05;;;3.08;;
11203;SDS011;5659;49.408;11.116;2023-03-23T07:50:38;5.93;;;3.15;;
11203;SDS011;5659;49.408;11.116;2023-03-23T07:53:05;5.32;;;3.20;;
11203;SDS011;5659;49.408;11.116;2023-03-23T07:55:31;6.90;;;3.13;;
11203;SDS011;5659;49.408;11.116;2023-03-23T07:57:57;4.85;;;3.10;;
11203;SDS011;5659;49.408;11.116;2023-03-23T08:00:23;7.97;;;3.80;;
11203;SDS011;5659;49.408;11.116;2023-03-23T08:02:53;6.38;;;3.28;;
11203;SDS011;5659;49.408;11.116;2023-03-23T08:05:24;5.53;;;3.50;;
11203;SDS011;5659;49.408;11.116;2023-03-23T08:07:51;4.90;;;3.60;;
11203;SDS011;5659;49.408;11.116;2023-03-23T08:10:19;4.30;;;3.35;;
11203;SDS011;5659;49.408;11.116;2023-03-23T08:12:49;7.30;;;3.72;;
11203;SDS011;5659;49.408;11.116;2023-03-23T08:15:15;5.35;;;3.00;;
11203;SDS011;5659;49.408;11.116;2023-03-23T08:17:41;7.43;;;3.38;;
11203;SDS011;5659;49.408;11.116;2023-03-23T08:20:08;12.20;;;3.47;;
11203;SDS011;5659;49.408;11.116;2023-03-23T08:22:38;4.47;;;3.15;;
11203;SDS011;5659;49.408;11.116;2023-03-23T08:25:05;8.52;;;3.13;;
11203;SDS011;5659;49.408;11.116;2023-03-23T08:27:31;6.53;;;3.40;;
11203;SDS011;5659;49.408;11.116;2023-03-23T08:29:57;7.15;;;3.25;;
11203;SDS011;5659;49.408;11.116;2023-03-23T08:32:24;5.05;;;3.00;;
11203;SDS011;5659;49.408;11.116;2023-03-23T08:34:50;5.95;;;3.30;;
11203;SDS011;5659;49.408;11.116;2023-03-23T08:37:16;5.35;;;3.42;;
11203;SDS011;5659;49.408;11.116;2023-03-23T08:39:42;8.73;;;3.15;;
11203;SDS011;5659;49.408;11.116;2023-03-23T08:42:09;5.95;;;2.85;;
11203;SDS011;5659;49.408;11.116;2023-03-23T08:44:35;7.40;;;3.22;;
11203;SDS011;5659;49.408;11.116;2023-03-23T08:47:01;7.00;;;3.25;;
11203;SDS011;5659;49.408;11.116;2023-03-23T08:49:29;10.70;;;3.58;;
11203;SDS011;5659;49.408;11.116;2023-03-23T08:51:57;11.98;;;3.85;;
11203;SDS011;5659;49.408;11.116;2023-03-23T08:54:23;22.92;;;4.35;;
11203;SDS011;5659;49.408;11.116;2023-03-23T08:56:49;16.50;;;4.45;;
11203;SDS011;5659;49.408;11.116;2023-03-23T08:59:15;12.02;;;4.10;;
11203;SDS011;5659;49.408;11.116;2023-03-23T09:01:42;5.55;;;2.88;;
11203;SDS011;5659;49.408;11.116;2023-03-23T09:04:08;9.75;;;3.83;;
11203;SDS011;5659;49.408;11.116;2023-03-23T09:06:35;7.50;;;3.63;;
11203;SDS011;5659;49.408;11.116;2023-03-23T09:09:02;5.63;;;3.05;;
11203;SDS011;5659;49.408;11.116;2023-03-23T09:11:31;7.45;;;3.17;;
11203;SDS011;5659;49.408;11.116;2023-03-23T09:13:57;7.22;;;3.58;;
11203;SDS011;5659;49.408;11.116;2023-03-23T09:16:23;9.02;;;3.53;;
11203;SDS011;5659;49.408;11.116;2023-03-23T09:18:50;7.30;;;3.30;;
11203;SDS011;5659;49.408;11.116;2023-03-23T09:21:16;13.95;;;3.90;;
11203;SDS011;5659;49.408;11.116;2023-03-23T09:23:42;7.85;;;3.50;;
11203;SDS011;5659;49.408;11.116;2023-03-23T09:26:09;11.75;;;3.72;;
11203;SDS011;5659;49.408;11.116;2023-03-23T09:28:35;4.75;;;2.88;;
11203;SDS011;5659;49.408;11.116;2023-03-23T09:31:01;6.00;;;3.42;;
11203;SDS011;5659;49.408;11.116;2023-03-23T09:33:27;4.68;;;2.88;;
11203;SDS011;5659;49.408;11.116;2023-03-23T09:35:57;5.43;;;2.97;;
11203;SDS011;5659;49.408;11.116;2023-03-23T09:38:23;7.28;;;2.90;;
11203;SDS011;5659;49.408;11.116;2023-03-23T09:43:40;5.75;;;2.80;;
11203;SDS011;5659;49.408;11.116;2023-03-23T09:48:50;11.65;;;3.53;;
11203;SDS011;5659;49.408;11.116;2023-03-23T09:51:33;6.85;;;3.33;;
11203;SDS011;5659;49.408;11.116;2023-03-23T09:54:21;6.75;;;3.20;;
11203;SDS011;5659;49.408;11.116;2023-03-23T09:56:48;10.07;;;3.22;;
11203;SDS011;5659;49.408;11.116;2023-03-23T09:59:17;4.82;;;2.78;;
11203;SDS011;5659;49.408;11.116;2023-03-23T10:01:48;4.28;;;2.72;;
11203;SDS011;5659;49.408;11.116;2023-03-23T10:04:32;6.50;;;2.70;;
11203;SDS011;5659;49.408;11.116;2023-03-23T10:07:00;3.90;;;2.40;;
11203;SDS011;5659;49.408;11.116;2023-03-23T10:09:31;4.35;;;2.60;;
11203;SDS011;5659;49.408;11.116;2023-03-23T10:12:19;3.95;;;2.97;;
11203;SDS011;5659;49.408;11.116;2023-03-23T10:17:54;4.40;;;3.13;;
11203;SDS011;5659;49.408;11.116;2023-03-23T10:22:50;5.38;;;2.80;;
11203;SDS011;5659;49.408;11.116;2023-03-23T10:25:26;4.93;;;2.50;;
11203;SDS011;5659;49.408;11.116;2023-03-23T10:30:30;10.00;;;2.25;;
11203;SDS011;5659;49.408;11.116;2023-03-23T10:35:38;6.63;;;2.90;;
11203;SDS011;5659;49.408;11.116;2023-03-23T10:38:13;4.97;;;2.97;;
11203;SDS011;5659;49.408;11.116;2023-03-23T10:40:45;4.72;;;2.92;;
11203;SDS011;5659;49.408;11.116;2023-03-23T10:43:13;7.82;;;2.90;;
11203;SDS011;5659;49.408;11.116;2023-03-23T10:45:40;5.15;;;3.55;;
11203;SDS011;5659;49.408;11.116;2023-03-23T10:48:12;7.45;;;3.05;;
11203;SDS011;5659;49.408;11.116;2023-03-23T10:50:40;3.35;;;2.47;;
11203;SDS011;5659;49.408;11.116;2023-03-23T10:53:19;4.10;;;2.83;;
11203;SDS011;5659;49.408;11.116;2023-03-23T10:55:46;5.40;;;2.90;;
11203;SDS011;5659;49.408;11.116;2023-03-23T10:58:22;7.55;;;2.60;;
11203;SDS011;5659;49.408;11.116;2023-03-23T11:00:48;4.25;;;2.83;;
11203;SDS011;5659;49.408;11.116;2023-03-23T11:08:16;3.53;;;2.25;;
11203;SDS011;5659;49.408;11.116;2023-03-23T11:10:50;3.75;;;2.03;;
11203;SDS011;5659;49.408;11.116;2023-03-23T11:13:18;5.43;;;2.22;;
11203;SDS011;5659;49.408;11.116;2023-03-23T11:15:45;2.78;;;2.05;;
11203;SDS011;5659;49.408;11.116;2023-03-23T11:18:24;5.30;;;2.10;;
11203;SDS011;5659;49.408;11.116;2023-03-23T11:20:54;3.22;;;1.98;;
11203;SDS011;5659;49.408;11.116;2023-03-23T11:23:27;4.28;;;2.20;;
11203;SDS011;5659;49.408;11.116;2023-03-23T11:26:13;2.50;;;2.10;;
11203;SDS011;5659;49.408;11.116;2023-03-23T11:28:45;2.03;;;1.88;;
11203;SDS011;5659;49.408;11.116;2023-03-23T11:31:12;3.78;;;2.10;;
11203;SDS011;5659;49.408;11.116;2023-03-23T11:36:09;4.20;;;2.20;;
11203;SDS011;5659;49.408;11.116;2023-03-23T11:38:39;2.63;;;2.00;;
11203;SDS011;5659;49.408;11.116;2023-03-23T11:41:09;2.20;;;2.00;;
11203;SDS011;5659;49.408;11.116;2023-03-23T11:43:38;2.83;;;2.10;;
11203;SDS011;5659;49.408;11.116;2023-03-23T11:46:09;2.78;;;2.22;;
11203;SDS011;5659;49.408;11.116;2023-03-23T11:48:43;2.72;;;2.25;;
11203;SDS011;5659;49.408;11.116;2023-03-23T11:53:58;2.92;;;2.38;;
11203;SDS011;5659;49.408;11.116;2023-03-23T11:58:53;3.55;;;2.00;;
11203;SDS011;5659;49.408;11.116;2023-03-23T12:06:43;7.38;;;2.53;;
11203;SDS011;5659;49.408;11.116;2023-03-23T12:14:13;3.28;;;2.35;;
11203;SDS011;5659;49.408;11.116;2023-03-23T12:17:24;3.60;;;2.65;;
11203;SDS011;5659;49.408;11.116;2023-03-23T12:19:39;3.60;;;2.47;;
11203;SDS011;5659;49.408;11.116;2023-03-23T12:24:43;6.05;;;1.95;;
11203;SDS011;5659;49.408;11.116;2023-03-23T12:27:16;4.05;;;1.95;;
11203;SDS011;5659;49.408;11.116;2023-03-23T12:29:59;4.55;;;2.50;;
11203;SDS011;5659;49.408;11.116;2023-03-23T12:35:07;3.70;;;2.28;;
11203;SDS011;5659;49.408;11.116;2023-03-23T12:37:41;4.00;;;1.80;;
11203;SDS011;5659;49.408;11.116;2023-03-23T12:42:54;3.50;;;1.40;;
11203;SDS011;5659;49.408;11.116;2023-03-23T12:48:13;4.13;;;1.80;;
11203;SDS011;5659;49.408;11.116;2023-03-23T12:53:50;6.60;;;2.17;;
11203;SDS011;5659;49.408;11.116;2023-03-23T12:58:44;4.28;;;2.17;;
11203;SDS011;5659;49.408;11.116;2023-03-23T13:01:15;2.95;;;1.73;;
11203;SDS011;5659;49.408;11.116;2023-03-23T13:03:51;8.50;;;2.05;;
11203;SDS011;5659;49.408;11.116;2023-03-23T13:06:23;10.98;;;1.88;;
11203;SDS011;5659;49.408;11.116;2023-03-23T13:08:57;3.75;;;1.80;;
11203;SDS011;5659;49.408;11.116;2023-03-23T13:11:27;4.45;;;1.67;;
11203;SDS011;5659;49.408;11.116;2023-03-23T13:13:55;3.33;;;2.00;;
11203;SDS011;5659;49.408;11.116;2023-03-23T13:24:22;2.83;;;1.90;;
11203;SDS011;5659;49.408;11.116;2023-03-23T13:26:50;2.65;;;1.60;;
11203;SDS011;5659;49.408;11.116;2023-03-23T13:29:18;3.10;;;1.60;;
11203;SDS011;5659;49.408;11.116;2023-03-23T13:31:45;3.15;;;1.40;;
11203;SDS011;5659;49.408;11.116;2023-03-23T13:36:45;4.43;;;1.67;;
11203;SDS011;5659;49.408;11.116;2023-03-23T13:39:18;4.75;;;1.73;;
11203;SDS011;5659;49.408;11.116;2023-03-23T13:41:54;3.35;;;1.70;;
11203;SDS011;5659;49.408;11.116;2023-03-23T13:44:25;5.00;;;1.60;;
11203;SDS011;5659;49.408;11.116;2023-03-23T13:46:55;3.05;;;1.58;;
11203;SDS011;5659;49.408;11.116;2023-03-23T13:49:23;2.92;;;1.83;;
11203;SDS011;5659;49.408;11.116;2023-03-23T13:54:25;3.03;;;1.60;;
11203;SDS011;5659;49.408;11.116;2023-03-23T13:56:59;2.67;;;1.98;;
11203;SDS011;5659;49.408;11.116;2023-03-23T13:59:35;5.90;;;1.80;;
11203;SDS011;5659;49.408;11.116;2023-03-23T14:04:46;2.70;;;1.60;;
11203;SDS011;5659;49.408;11.116;2023-03-23T14:07:15;2.25;;;1.60;;
11203;SDS011;5659;49.408;11.116;2023-03-23T14:09:43;2.38;;;1.70;;
11203;SDS011;5659;49.408;11.116;2023-03-23T14:12:27;3.58;;;2.17;;
11203;SDS011;5659;49.408;11.116;2023-03-23T14:14:58;6.57;;;1.80;;
11203;SDS011;5659;49.408;11.116;2023-03-23T14:17:29;2.13;;;1.90;;
11203;SDS011;5659;49.408;11.116;2023-03-23T14:19:56;3.25;;;1.70;;
11203;SDS011;5659;49.408;11.116;2023-03-23T14:22:33;5.72;;;1.80;;
11203;SDS011;5659;49.408;11.116;2023-03-23T14:25:00;1.70;;;1.60;;
11203;SDS011;5659;49.408;11.116;2023-03-23T14:27:33;2.22;;;1.70;;
11203;SDS011;5659;49.408;11.116;2023-03-23T14:30:05;5.47;;;2.00;;
11203;SDS011;5659;49.408;11.116;2023-03-23T14:32:32;3.65;;;1.90;;
11203;SDS011;5659;49.408;11.116;2023-03-23T14:34:58;2.45;;;1.67;;
11203;SDS011;5659;49.408;11.116;2023-03-23T14:37:25;2.40;;;1.90;;
11203;SDS011;5659;49.408;11.116;2023-03-23T14:39:54;3.42;;;2.00;;
11203;SDS011;5659;49.408;11.116;2023-03-23T14:42:27;4.43;;;2.00;;
11203;SDS011;5659;49.408;11.116;2023-03-23T14:44:55;3.22;;;2.00;;
11203;SDS011;5659;49.408;11.116;2023-03-23T14:47:26;5.15;;;2.08;;
11203;SDS011;5659;49.408;11.116;2023-03-23T14:49:53;4.88;;;2.08;;
11203;SDS011;5659;49.408;11.116;2023-03-23T14:52:21;2.92;;;2.00;;
11203;SDS011;5659;49.408;11.116;2023-03-23T14:54:47;3.50;;;1.80;;
11203;SDS011;5659;49.408;11.116;2023-03-23T14:57:25;2.38;;;1.95;;
11203;SDS011;5659;49.408;11.116;2023-03-23T14:59:52;3.78;;;1.83;;
11203;SDS011;5659;49.408;11.116;2023-03-23T15:02:21;2.00;;;1.77;;
11203;SDS011;5659;49.408;11.116;2023-03-23T15:04:51;3.13;;;2.10;;
11203;SDS011;5659;49.408;11.116;2023-03-23T15:07:19;2.60;;;1.88;;
11203;SDS011;5659;49.408;11.116;2023-03-23T15:09:45;4.47;;;2.05;;
11203;SDS011;5659;49.408;11.116;2023-03-23T15:12:18;3.60;;;2.42;;
11203;SDS011;5659;49.408;11.116;2023-03-23T15:14:46;3.13;;;2.10;;
11203;SDS011;5659;49.408;11.116;2023-03-23T15:17:20;4.40;;;2.40;;
11203;SDS011;5659;49.408;11.116;2023-03-23T15:19:47;5.45;;;2.40;;
11203;SDS011;5659;49.408;11.116;2023-03-23T15:22:24;3.15;;;2.50;;
11203;SDS011;5659;49.408;11.116;2023-03-23T15:24:51;3.40;;;2.28;;
11203;SDS011;5659;49.408;11.116;2023-03-23T15:27:28;4.05;;;2.30;;
11203;SDS011;5659;49.408;11.116;2023-03-23T15:29:56;7.18;;;2.22;;
11203;SDS011;5659;49.408;11.116;2023-03-23T15:34:52;6.20;;;2.47;;
11203;SDS011;5659;49.408;11.116;2023-03-23T15:37:24;4.55;;;2.53;;
11203;SDS011;5659;49.408;11.116;2023-03-23T15:39:51;4.90;;;2.35;;
11203;SDS011;5659;49.408;11.116;2023-03-23T15:42:32;5.65;;;2.30;;
11203;SDS011;5659;49.408;11.116;2023-03-23T15:45:04;5.40;;;2.35;;
11203;SDS011;5659;49.408;11.116;2023-03-23T15:47:43;6.38;;;2.55;;
11203;SDS011;5659;49.408;11.116;2023-03-23T15:52:51;3.92;;;2.40;;
11203;SDS011;5659;49.408;11.116;2023-03-23T15:55:24;3.78;;;2.30;;
11203;SDS011;5659;49.408;11.116;2023-03-23T15:57:51;5.43;;;2.50;;
11203;SDS011;5659;49.408;11.116;2023-03-23T16:00:18;2.85;;;2.30;;
11203;SDS011;5659;49.408;11.116;2023-03-23T16:02:48;3.40;;;2.35;;
11203;SDS011;5659;49.408;11.116;2023-03-23T16:05:15;2.58;;;2.20;;
11203;SDS011;5659;49.408;11.116;2023-03-23T16:07:41;4.35;;;2.60;;
11203;SDS011;5659;49.408;11.116;2023-03-23T16:10:10;5.63;;;2.05;;
11203;SDS011;5659;49.408;11.116;2023-03-23T16:12:39;2.70;;;2.10;;
11203;SDS011;5659;49.408;11.116;2023-03-23T16:15:05;2.42;;;2.20;;
11203;SDS011;5659;49.408;11.116;2023-03-23T16:17:33;3.95;;;2.88;;
11203;SDS011;5659;49.408;11.116;2023-03-23T16:19:59;3.67;;;2.75;;
11203;SDS011;5659;49.408;11.116;2023-03-23T16:22:25;3.45;;;2.22;;
11203;SDS011;5659;49.408;11.116;2023-03-23T16:24:51;2.88;;;2.30;;
11203;SDS011;5659;49.408;11.116;2023-03-23T16:27:17;4.25;;;2.50;;
11203;SDS011;5659;49.408;11.116;2023-03-23T16:29:45;3.90;;;2.33;;
11203;SDS011;5659;49.408;11.116;2023-03-23T16:32:11;7.35;;;2.80;;